createdAt,value
2018-12-19T00:00:40.748Z,30.07
2018-12-19T00:03:09.215Z,30.50
2018-12-19T00:05:37.715Z,29.63
2018-12-19T00:08:06.091Z,29.30
2018-12-19T00:10:34.631Z,30.60
2018-12-19T00:13:02.945Z,33.77
2018-12-19T00:15:31.221Z,32.83
2018-12-19T00:17:59.676Z,28.97
2018-12-19T00:20:27.936Z,29.80
2018-12-19T00:22:56.320Z,29.37
2018-12-19T00:25:24.701Z,30.40
2018-12-19T00:27:53.015Z,32.03
2018-12-19T00:30:21.385Z,33.90
2018-12-19T00:32:49.837Z,33.23
2018-12-19T00:35:18.196Z,34.03
2018-12-19T00:37:46.683Z,32.97
2018-12-19T00:40:15.000Z,32.60
2018-12-19T00:42:43.306Z,34.87
2018-12-19T00:45:11.620Z,33.50
2018-12-19T00:47:39.996Z,33.40
2018-12-19T00:50:08.297Z,31.57
2018-12-19T00:52:36.626Z,37.30
2018-12-19T00:55:05.736Z,33.13
2018-12-19T00:57:34.061Z,39.50
2018-12-19T01:00:02.365Z,41.67
2018-12-19T01:02:30.699Z,37.50
2018-12-19T01:04:59.225Z,37.53
2018-12-19T01:07:27.671Z,34.57
2018-12-19T01:09:55.971Z,37.13
2018-12-19T01:12:24.265Z,34.70
2018-12-19T01:14:52.628Z,36.87
2018-12-19T01:17:20.918Z,36.83
2018-12-19T01:19:49.335Z,34.77
2018-12-19T01:22:17.473Z,36.20
2018-12-19T01:24:45.772Z,37.27
2018-12-19T01:27:14.049Z,38.63
2018-12-19T01:29:42.450Z,34.53
2018-12-19T01:32:10.760Z,37.17
2018-12-19T01:34:39.087Z,35.67
2018-12-19T01:37:07.359Z,31.03
2018-12-19T01:39:35.705Z,34.57
2018-12-19T01:42:03.737Z,35.20
2018-12-19T01:44:32.103Z,35.60
2018-12-19T01:47:00.156Z,32.33
2018-12-19T01:49:28.208Z,35.90
2018-12-19T01:51:56.476Z,39.10
2018-12-19T01:54:24.839Z,33.33
2018-12-19T01:56:53.167Z,32.03
2018-12-19T01:59:21.515Z,33.77
2018-12-19T02:01:49.553Z,29.67
2018-12-19T02:04:17.624Z,34.13
2018-12-19T02:06:45.989Z,35.60
2018-12-19T02:09:15.158Z,38.10
2018-12-19T02:11:43.422Z,33.57
2018-12-19T02:14:11.824Z,36.53
2018-12-19T02:16:40.127Z,32.67
2018-12-19T02:19:08.500Z,29.83
2018-12-19T02:21:36.868Z,32.37
2018-12-19T02:24:05.248Z,34.03
2018-12-19T02:26:33.517Z,32.90
2018-12-19T02:29:01.901Z,31.40
2018-12-19T02:31:30.201Z,30.63
2018-12-19T02:33:58.504Z,30.60
2018-12-19T02:36:26.569Z,33.60
2018-12-19T02:38:54.859Z,33.80
2018-12-19T02:41:22.931Z,29.83
2018-12-19T02:43:51.284Z,28.53
2018-12-19T02:46:19.789Z,31.67
2018-12-19T02:48:48.083Z,28.00
2018-12-19T02:51:16.393Z,29.67
2018-12-19T02:53:44.656Z,27.47
2018-12-19T02:56:12.824Z,28.70
2018-12-19T02:58:40.897Z,25.33
2018-12-19T03:01:08.969Z,27.60
2018-12-19T03:03:37.244Z,29.27
2018-12-19T03:06:05.545Z,24.37
2018-12-19T03:08:33.820Z,26.33
2018-12-19T03:11:02.639Z,25.20
2018-12-19T03:13:31.167Z,26.27
2018-12-19T03:15:59.466Z,28.87
2018-12-19T03:18:27.875Z,28.40
2018-12-19T03:20:56.175Z,29.17
2018-12-19T03:23:24.701Z,30.03
2018-12-19T03:25:53.008Z,33.00
2018-12-19T03:28:21.335Z,31.17
2018-12-19T03:30:49.877Z,34.60
2018-12-19T03:33:18.163Z,33.73
2018-12-19T03:35:46.459Z,36.97
2018-12-19T03:38:16.498Z,34.53
2018-12-19T03:40:44.843Z,37.30
2018-12-19T03:43:13.125Z,32.43
2018-12-19T03:45:41.425Z,33.07
2018-12-19T03:48:11.460Z,35.97
2018-12-19T03:50:39.801Z,31.93
2018-12-19T03:53:08.169Z,34.97
2018-12-19T03:55:36.232Z,33.97
2018-12-19T03:58:04.586Z,37.07
2018-12-19T04:00:32.885Z,35.33
2018-12-19T04:03:01.222Z,35.97
2018-12-19T04:05:29.666Z,35.33
2018-12-19T04:07:57.709Z,35.27
2018-12-19T04:10:25.984Z,29.70
2018-12-19T04:12:54.402Z,32.50
2018-12-19T04:15:22.673Z,32.07
2018-12-19T04:17:50.994Z,31.40
2018-12-19T04:20:19.268Z,27.23
2018-12-19T04:22:47.626Z,29.80
2018-12-19T04:25:15.933Z,28.93
2018-12-19T04:27:44.314Z,30.87
2018-12-19T04:30:12.685Z,39.30
2018-12-19T04:32:41.211Z,30.63
2018-12-19T04:35:09.545Z,33.30
2018-12-19T04:37:37.883Z,28.83
2018-12-19T04:40:06.275Z,28.73
2018-12-19T04:42:34.821Z,28.90
2018-12-19T04:45:03.196Z,28.83
2018-12-19T04:47:31.500Z,30.27
2018-12-19T04:49:59.780Z,28.10
2018-12-19T04:52:27.950Z,21.53
2018-12-19T04:54:56.253Z,25.00
2018-12-19T04:57:24.621Z,25.30
2018-12-19T04:59:52.893Z,23.53
2018-12-19T05:02:21.191Z,23.70
2018-12-19T05:04:49.551Z,22.20
2018-12-19T05:07:18.873Z,22.80
2018-12-19T05:09:47.157Z,23.47
2018-12-19T05:12:15.463Z,25.60
2018-12-19T05:14:43.740Z,24.23
2018-12-19T05:17:12.259Z,20.77
2018-12-19T05:19:40.348Z,23.50
2018-12-19T05:22:08.414Z,20.00
2018-12-19T05:24:36.772Z,20.33
2018-12-19T05:27:04.895Z,15.30
2018-12-19T05:29:33.177Z,20.63
2018-12-19T05:32:01.501Z,19.57
2018-12-19T05:34:29.769Z,19.47
2018-12-19T05:36:58.770Z,21.10
2018-12-19T05:39:27.142Z,17.87
2018-12-19T05:41:55.511Z,17.80
2018-12-19T05:44:23.531Z,20.37
2018-12-19T05:46:51.828Z,19.10
2018-12-19T05:49:20.164Z,20.80
2018-12-19T05:51:48.520Z,19.10
2018-12-19T05:54:16.974Z,24.23
2018-12-19T05:56:45.012Z,23.90
2018-12-19T05:59:13.416Z,23.27
2018-12-19T06:01:41.715Z,21.80
2018-12-19T06:04:10.093Z,25.57
2018-12-19T06:06:38.525Z,25.67
2018-12-19T06:09:06.965Z,23.23
2018-12-19T06:11:35.387Z,19.90
2018-12-19T06:14:03.776Z,27.00
2018-12-19T06:16:32.137Z,25.20
2018-12-19T06:19:00.472Z,19.47
2018-12-19T06:21:28.876Z,13.80
2018-12-19T06:23:57.394Z,13.27
2018-12-19T06:26:25.672Z,13.67
2018-12-19T06:28:54.181Z,15.67
2018-12-19T06:31:22.251Z,11.47
2018-12-19T06:33:50.744Z,15.40
2018-12-19T06:36:19.020Z,12.63
2018-12-19T06:38:47.353Z,10.77
2018-12-19T06:41:15.728Z,18.13
2018-12-19T06:43:44.141Z,20.77
2018-12-19T06:46:12.266Z,19.17
2018-12-19T06:48:40.671Z,20.83
2018-12-19T06:51:09.235Z,21.47
2018-12-19T06:53:37.590Z,24.17
2018-12-19T06:56:05.981Z,19.67
2018-12-19T06:58:34.335Z,20.37
2018-12-19T07:01:02.705Z,18.60
2018-12-19T07:03:31.031Z,18.77
2018-12-19T07:05:59.321Z,25.13
2018-12-19T07:08:27.705Z,25.77
2018-12-19T07:10:56.090Z,26.00
2018-12-19T07:13:24.363Z,26.67
2018-12-19T07:15:52.667Z,26.87
2018-12-19T07:18:20.965Z,22.17
2018-12-19T07:20:49.451Z,22.20
2018-12-19T07:23:17.829Z,21.00
2018-12-19T07:25:46.235Z,17.73
2018-12-19T07:28:14.501Z,16.13
2018-12-19T07:30:42.883Z,17.70
2018-12-19T07:33:11.332Z,17.10
2018-12-19T07:35:39.662Z,18.77
2018-12-19T07:38:07.932Z,18.97
2018-12-19T07:40:36.400Z,18.53
2018-12-19T07:43:04.776Z,18.03
2018-12-19T07:45:33.123Z,17.03
2018-12-19T07:48:01.736Z,17.43
2018-12-19T07:50:30.037Z,19.40
2018-12-19T07:52:58.561Z,16.93
2018-12-19T07:55:28.627Z,29.37
2018-12-19T07:57:56.893Z,27.50
2018-12-19T08:00:27.567Z,21.60
2018-12-19T08:02:55.538Z,19.50
2018-12-19T08:05:26.321Z,24.50
2018-12-19T08:07:54.493Z,23.83
2018-12-19T08:10:22.789Z,23.03
2018-12-19T08:12:51.602Z,23.07
2018-12-19T08:15:20.100Z,18.17
2018-12-19T08:17:48.384Z,23.23
2018-12-19T08:20:16.672Z,20.27
2018-12-19T08:22:44.964Z,25.43
2018-12-19T08:25:13.251Z,23.10
2018-12-19T08:27:41.679Z,20.73
2018-12-19T08:30:10.401Z,18.97
2018-12-19T08:32:38.847Z,20.07
2018-12-19T08:35:07.258Z,18.93
2018-12-19T08:37:35.544Z,34.33
2018-12-19T08:40:04.236Z,29.77
2018-12-19T08:42:32.590Z,29.67
2018-12-19T08:45:00.944Z,32.10
2018-12-19T08:47:29.232Z,19.33
2018-12-19T08:49:57.624Z,25.07
2018-12-19T08:52:25.938Z,19.70
2018-12-19T08:54:54.266Z,21.87
2018-12-19T08:57:22.646Z,24.30
2018-12-19T08:59:50.950Z,18.23
2018-12-19T09:02:19.293Z,23.73
2018-12-19T09:04:47.649Z,18.30
2018-12-19T09:07:16.073Z,21.33
2018-12-19T09:09:44.425Z,16.47
2018-12-19T09:12:12.736Z,16.10
2018-12-19T09:14:41.090Z,16.07
2018-12-19T09:17:09.797Z,15.30
2018-12-19T09:19:38.356Z,13.47
2018-12-19T09:22:06.724Z,13.23
2018-12-19T09:24:35.004Z,17.00
2018-12-19T09:27:03.299Z,17.73
2018-12-19T09:29:31.653Z,20.07
2018-12-19T09:32:00.120Z,20.87
2018-12-19T09:34:28.590Z,18.10
2018-12-19T09:36:56.900Z,21.60
2018-12-19T09:39:25.379Z,16.87
2018-12-19T09:41:53.752Z,11.47
2018-12-19T09:44:22.022Z,12.80
2018-12-19T09:46:50.305Z,14.20
2018-12-19T09:49:18.579Z,13.27
2018-12-19T09:51:46.944Z,13.17
2018-12-19T09:54:15.226Z,15.87
2018-12-19T09:56:43.532Z,15.47
2018-12-19T09:59:11.788Z,16.53
2018-12-19T10:01:40.258Z,15.57
2018-12-19T10:04:08.530Z,13.63
2018-12-19T10:06:36.917Z,15.33
2018-12-19T10:09:08.885Z,13.73
2018-12-19T10:11:37.560Z,9.67
2018-12-19T10:14:05.947Z,16.20
2018-12-19T10:16:34.228Z,12.67
2018-12-19T10:19:02.616Z,11.80
2018-12-19T10:21:31.079Z,14.97
2018-12-19T10:23:59.448Z,13.83
2018-12-19T10:26:27.748Z,15.53
2018-12-19T10:28:56.173Z,11.30
2018-12-19T10:31:24.629Z,14.20
2018-12-19T10:33:52.953Z,14.40
2018-12-19T10:36:22.773Z,9.13
2018-12-19T10:38:51.032Z,10.90
2018-12-19T10:41:25.318Z,11.60
2018-12-19T10:43:50.007Z,18.53
2018-12-19T10:46:18.661Z,14.33
2018-12-19T10:48:46.949Z,13.53
2018-12-19T10:51:15.034Z,13.97
2018-12-19T10:53:43.352Z,13.23
2018-12-19T10:56:11.639Z,10.63
2018-12-19T10:58:40.036Z,12.27
2018-12-19T11:01:08.304Z,13.70
2018-12-19T11:03:36.742Z,14.03
2018-12-19T11:06:04.910Z,11.27
2018-12-19T11:08:33.205Z,7.63
2018-12-19T11:11:01.487Z,16.40
2018-12-19T11:13:29.795Z,11.43
2018-12-19T11:15:58.110Z,10.23
2018-12-19T11:18:28.308Z,20.70
2018-12-19T11:20:56.677Z,13.03
2018-12-19T11:23:25.008Z,12.97
2018-12-19T11:25:53.292Z,19.50
2018-12-19T11:28:21.579Z,15.07
2018-12-19T11:30:49.856Z,9.90
2018-12-19T11:33:18.165Z,9.27
2018-12-19T11:35:46.482Z,11.03
2018-12-19T11:38:14.865Z,10.17
2018-12-19T11:40:43.149Z,10.50
2018-12-19T11:43:11.516Z,9.03
2018-12-19T11:45:39.795Z,10.03
2018-12-19T11:48:08.089Z,11.83
2018-12-19T11:50:36.489Z,15.93
2018-12-19T11:53:04.902Z,20.77
2018-12-19T11:55:33.208Z,26.00
2018-12-19T11:58:01.558Z,10.03
2018-12-19T12:00:29.938Z,14.33
2018-12-19T12:02:58.334Z,12.53
2018-12-19T12:05:26.688Z,10.70
2018-12-19T12:07:55.007Z,10.53
2018-12-19T12:10:23.058Z,11.40
2018-12-19T12:12:51.457Z,32.70
2018-12-19T12:15:19.729Z,32.23
2018-12-19T12:17:47.789Z,34.90
2018-12-19T12:20:16.069Z,17.50
2018-12-19T12:22:44.198Z,16.90
2018-12-19T12:25:12.465Z,20.63
2018-12-19T12:27:40.792Z,14.50
2018-12-19T12:30:09.159Z,14.87
2018-12-19T12:32:37.436Z,16.07
2018-12-19T12:35:06.639Z,33.50
2018-12-19T12:37:35.056Z,44.93
2018-12-19T12:40:03.503Z,25.37
2018-12-19T12:42:31.764Z,22.23
2018-12-19T12:45:00.245Z,38.50
2018-12-19T12:47:28.707Z,26.03
2018-12-19T12:49:57.103Z,24.33
2018-12-19T12:52:25.377Z,31.37
2018-12-19T12:54:53.753Z,15.93
2018-12-19T12:57:22.042Z,25.77
2018-12-19T12:59:50.408Z,22.10
2018-12-19T13:02:18.682Z,41.77
2018-12-19T13:04:47.008Z,22.70
2018-12-19T13:07:15.343Z,21.53
2018-12-19T13:09:43.720Z,19.20
2018-12-19T13:12:12.307Z,14.13
2018-12-19T13:14:40.697Z,21.03
2018-12-19T13:17:08.817Z,14.30
2018-12-19T13:19:37.229Z,12.00
2018-12-19T13:22:05.537Z,19.77
2018-12-19T13:24:33.837Z,26.77
2018-12-19T13:27:02.164Z,34.20
2018-12-19T13:29:30.468Z,20.37
2018-12-19T13:31:59.539Z,21.50
2018-12-19T13:34:27.916Z,15.20
2018-12-19T13:36:56.356Z,23.70
2018-12-19T13:39:24.731Z,20.40
2018-12-19T13:41:53.036Z,15.67
2018-12-19T13:44:21.413Z,15.53
2018-12-19T13:46:49.669Z,19.63
2018-12-19T13:49:18.073Z,20.97
2018-12-19T13:51:46.448Z,20.77
2018-12-19T13:54:14.816Z,23.50
2018-12-19T13:56:43.108Z,16.87
2018-12-19T13:59:11.602Z,16.07
2018-12-19T14:01:39.868Z,15.17
2018-12-19T14:04:08.334Z,14.87
2018-12-19T14:06:36.602Z,11.37
2018-12-19T14:09:06.702Z,13.73
2018-12-19T14:11:35.078Z,7.83
2018-12-19T14:14:03.469Z,11.47
2018-12-19T14:16:31.937Z,6.73
2018-12-19T14:19:00.633Z,8.37
2018-12-19T14:21:29.029Z,14.63
2018-12-19T14:23:57.381Z,12.77
2018-12-19T14:26:26.004Z,10.97
2018-12-19T14:28:54.420Z,13.93
2018-12-19T14:31:22.986Z,11.53
2018-12-19T14:33:51.312Z,14.57
2018-12-19T14:36:19.796Z,19.37
2018-12-19T14:38:48.051Z,9.70
2018-12-19T14:41:16.343Z,12.30
2018-12-19T14:43:44.634Z,17.73
2018-12-19T14:46:13.008Z,14.43
2018-12-19T14:48:41.284Z,8.90
2018-12-19T14:51:09.864Z,15.00
2018-12-19T14:53:38.253Z,15.53
2018-12-19T14:56:06.645Z,12.77
2018-12-19T14:58:34.988Z,11.33
2018-12-19T15:01:03.362Z,20.80
2018-12-19T15:03:31.638Z,21.53
2018-12-19T15:05:59.925Z,13.20
2018-12-19T15:08:28.408Z,10.47
2018-12-19T15:10:56.789Z,11.17
2018-12-19T15:13:25.283Z,6.80
2018-12-19T15:15:59.207Z,11.10
2018-12-19T15:18:27.543Z,8.07
2018-12-19T15:20:55.835Z,23.33
2018-12-19T15:23:24.113Z,15.17
2018-12-19T15:25:52.405Z,19.37
2018-12-19T15:28:20.699Z,18.70
2018-12-19T15:30:49.233Z,14.47
2018-12-19T15:33:17.606Z,18.70
2018-12-19T15:35:45.928Z,13.00
2018-12-19T15:38:14.232Z,19.20
2018-12-19T15:40:42.610Z,12.00
2018-12-19T15:43:10.989Z,12.50
2018-12-19T15:45:39.294Z,14.67
2018-12-19T15:48:07.744Z,11.20
2018-12-19T15:50:36.045Z,13.70
2018-12-19T15:53:04.357Z,16.97
2018-12-19T15:55:32.853Z,29.10
2018-12-19T15:58:01.321Z,19.60
2018-12-19T16:00:29.654Z,24.67
2018-12-19T16:02:58.059Z,20.93
2018-12-19T16:05:26.392Z,16.73
2018-12-19T16:07:54.701Z,16.47
2018-12-19T16:10:22.961Z,17.80
2018-12-19T16:12:51.285Z,19.87
2018-12-19T16:15:19.615Z,15.13
2018-12-19T16:17:47.914Z,14.90
2018-12-19T16:20:16.188Z,14.97
2018-12-19T16:22:44.648Z,13.17
2018-12-19T16:25:12.940Z,14.67
2018-12-19T16:27:41.228Z,13.33
2018-12-19T16:30:09.380Z,18.43
2018-12-19T16:32:37.999Z,25.90
2018-12-19T16:35:06.328Z,14.97
2018-12-19T16:37:34.711Z,19.67
2018-12-19T16:40:02.985Z,15.30
2018-12-19T16:42:31.370Z,15.13
2018-12-19T16:44:59.711Z,13.37
2018-12-19T16:47:28.012Z,12.80
2018-12-19T16:49:56.388Z,10.63
2018-12-19T16:52:24.695Z,8.97
2018-12-19T16:54:53.004Z,14.03
2018-12-19T16:57:21.422Z,14.87
2018-12-19T16:59:49.783Z,12.17
2018-12-19T17:02:18.184Z,10.23
2018-12-19T17:04:46.469Z,13.70
2018-12-19T17:07:14.832Z,15.37
2018-12-19T17:09:43.106Z,12.30
2018-12-19T17:12:11.409Z,16.67
2018-12-19T17:14:39.681Z,10.20
2018-12-19T17:17:08.049Z,11.80
2018-12-19T17:19:36.323Z,24.00
2018-12-19T17:22:04.620Z,26.80
2018-12-19T17:24:38.281Z,17.13
2018-12-19T17:27:06.669Z,15.40
2018-12-19T17:29:35.119Z,11.97
2018-12-19T17:32:03.901Z,9.63
2018-12-19T17:34:32.205Z,11.83
2018-12-19T17:37:00.312Z,6.93
2018-12-19T17:39:28.685Z,7.60
2018-12-19T17:41:56.969Z,14.00
2018-12-19T17:44:25.182Z,6.77
2018-12-19T17:46:53.584Z,6.63
2018-12-19T17:49:21.964Z,9.17
2018-12-19T17:51:50.346Z,13.43
2018-12-19T17:54:18.779Z,5.57
2018-12-19T17:56:46.832Z,8.83
2018-12-19T17:59:15.161Z,7.93
2018-12-19T18:01:43.416Z,7.50
2018-12-19T18:04:11.801Z,5.47
2018-12-19T18:06:40.092Z,7.13
2018-12-19T18:09:08.152Z,8.00
2018-12-19T18:11:36.466Z,11.00
2018-12-19T18:14:04.835Z,13.87
2018-12-19T18:16:33.172Z,10.27
2018-12-19T18:19:01.475Z,9.40
2018-12-19T18:21:29.948Z,9.30
2018-12-19T18:23:58.432Z,9.67
2018-12-19T18:26:26.721Z,8.17
2018-12-19T18:28:54.847Z,9.50
2018-12-19T18:31:22.900Z,8.33
2018-12-19T18:33:51.241Z,9.77
2018-12-19T18:36:19.281Z,7.47
2018-12-19T18:38:47.715Z,7.27
2018-12-19T18:41:16.057Z,9.87
2018-12-19T18:43:44.137Z,9.83
2018-12-19T18:46:12.437Z,8.57
2018-12-19T18:48:40.580Z,11.17
2018-12-19T18:51:08.957Z,10.30
2018-12-19T18:53:37.040Z,17.20
2018-12-19T18:56:05.374Z,21.27
2018-12-19T18:58:33.859Z,22.57
2018-12-19T19:01:02.270Z,24.17
2018-12-19T19:03:30.653Z,33.43
2018-12-19T19:05:58.981Z,23.30
2018-12-19T19:08:27.560Z,25.23
2018-12-19T19:10:55.743Z,19.07
2018-12-19T19:13:23.789Z,12.23
2018-12-19T19:15:52.118Z,14.67
2018-12-19T19:18:20.416Z,9.87
2018-12-19T19:20:48.873Z,7.93
2018-12-19T19:23:17.244Z,10.27
2018-12-19T19:25:45.540Z,8.10
2018-12-19T19:28:14.504Z,11.07
2018-12-19T19:30:43.080Z,11.93
2018-12-19T19:33:12.702Z,18.73
2018-12-19T19:35:40.988Z,30.30
2018-12-19T19:38:09.297Z,17.77
2018-12-19T19:40:38.046Z,15.83
2018-12-19T19:43:06.358Z,15.90
2018-12-19T19:45:34.390Z,14.60
2018-12-19T19:48:02.759Z,10.43
2018-12-19T19:50:31.063Z,13.13
2018-12-19T19:52:59.419Z,12.33
2018-12-19T19:55:27.919Z,12.47
2018-12-19T19:57:56.461Z,11.57
2018-12-19T20:00:29.243Z,9.37
2018-12-19T20:02:57.282Z,11.40
2018-12-19T20:05:25.585Z,12.57
2018-12-19T20:07:53.849Z,12.27
2018-12-19T20:10:22.221Z,13.13
2018-12-19T20:12:50.354Z,15.77
2018-12-19T20:15:18.637Z,18.00
2018-12-19T20:17:46.909Z,15.83
2018-12-19T20:20:16.512Z,14.10
2018-12-19T20:22:45.638Z,15.47
2018-12-19T20:25:13.968Z,18.63
2018-12-19T20:27:42.448Z,18.53
2018-12-19T20:30:11.066Z,20.37
2018-12-19T20:32:39.114Z,17.47
2018-12-19T20:35:07.261Z,15.00
2018-12-19T20:37:35.309Z,20.83
2018-12-19T20:40:03.457Z,24.40
2018-12-19T20:42:31.791Z,40.93
2018-12-19T20:45:00.124Z,37.60
2018-12-19T20:47:28.256Z,23.63
2018-12-19T20:49:56.562Z,19.10
2018-12-19T20:52:24.594Z,19.33
2018-12-19T20:54:52.918Z,18.73
2018-12-19T20:57:21.251Z,17.63
2018-12-19T20:59:49.332Z,21.13
2018-12-19T21:02:17.583Z,20.33
2018-12-19T21:04:45.834Z,19.47
2018-12-19T21:07:14.006Z,22.33
2018-12-19T21:09:42.307Z,18.43
2018-12-19T21:12:10.648Z,20.63
2018-12-19T21:14:39.018Z,19.40
2018-12-19T21:17:12.848Z,20.27
2018-12-19T21:19:41.194Z,17.90
2018-12-19T21:22:10.802Z,20.47
2018-12-19T21:24:39.235Z,21.90
2018-12-19T21:27:07.627Z,23.53
2018-12-19T21:29:36.000Z,20.67
2018-12-19T21:32:04.065Z,28.83
2018-12-19T21:34:32.419Z,24.53
2018-12-19T21:37:01.997Z,20.20
2018-12-19T21:39:30.811Z,21.57
2018-12-19T21:41:59.155Z,25.70
2018-12-19T21:44:27.711Z,25.13
2018-12-19T21:46:56.049Z,23.77
2018-12-19T21:49:25.244Z,22.43
2018-12-19T21:51:53.680Z,19.83
2018-12-19T21:54:22.247Z,22.03
2018-12-19T21:56:50.678Z,23.27
2018-12-19T21:59:19.153Z,18.23
2018-12-19T22:01:47.471Z,21.27
2018-12-19T22:04:15.863Z,18.47
2018-12-19T22:06:44.203Z,20.03
2018-12-19T22:09:12.875Z,22.50
2018-12-19T22:11:41.197Z,17.63
2018-12-19T22:14:09.502Z,17.70
2018-12-19T22:16:43.300Z,18.30
2018-12-19T22:19:11.675Z,20.23
2018-12-19T22:21:40.218Z,20.20
2018-12-19T22:24:08.490Z,18.27
2018-12-19T22:26:36.806Z,18.23
2018-12-19T22:29:05.152Z,23.03
2018-12-19T22:31:33.697Z,19.47
2018-12-19T22:34:02.262Z,22.10
2018-12-19T22:36:30.559Z,19.67
2018-12-19T22:38:58.931Z,18.73
2018-12-19T22:41:27.453Z,16.20
2018-12-19T22:43:55.715Z,20.33
2018-12-19T22:46:24.124Z,16.83
2018-12-19T22:48:52.563Z,18.47
2018-12-19T22:51:21.146Z,18.53
2018-12-19T22:53:49.187Z,34.20
2018-12-19T22:56:17.482Z,24.43
2018-12-19T22:58:45.603Z,17.00
2018-12-19T23:01:19.598Z,17.30
2018-12-19T23:03:53.704Z,15.37
2018-12-19T23:06:22.290Z,15.87
2018-12-19T23:08:50.355Z,16.27
2018-12-19T23:11:18.733Z,21.50
2018-12-19T23:13:47.066Z,19.20
2018-12-19T23:16:15.719Z,16.50
2018-12-19T23:18:44.004Z,17.60
2018-12-19T23:21:12.670Z,19.50
2018-12-19T23:23:40.954Z,15.57
2018-12-19T23:26:09.393Z,19.07
2018-12-19T23:28:37.948Z,18.17
2018-12-19T23:31:06.578Z,17.20
2018-12-19T23:33:34.677Z,20.37
2018-12-19T23:36:03.139Z,19.00
2018-12-19T23:38:31.739Z,17.23
2018-12-19T23:41:00.453Z,21.83
2018-12-19T23:43:28.752Z,18.13
2018-12-19T23:45:57.422Z,16.47
2018-12-19T23:48:25.941Z,21.03
2018-12-19T23:50:54.268Z,17.37
2018-12-19T23:53:22.800Z,18.80
2018-12-19T23:55:51.208Z,18.57
2018-12-19T23:58:19.774Z,20.10
